sensor_id;sensor_type;location;lat;lon;timestamp;temperature;humidity
4518;DHT22;2271;49.464;11.070;2022-07-04T00:00:27;24.00;99.80
4518;DHT22;2271;49.464;11.070;2022-07-04T00:02:53;23.80;99.90
4518;DHT22;2271;49.464;11.070;2022-07-04T00:05:19;23.80;99.90
4518;DHT22;2271;49.464;11.070;2022-07-04T00:07:47;23.80;99.90
4518;DHT22;2271;49.464;11.070;2022-07-04T00:10:16;23.80;99.90
4518;DHT22;2271;49.464;11.070;2022-07-04T00:12:41;23.80;99.90
4518;DHT22;2271;49.464;11.070;2022-07-04T00:15:08;23.70;99.90
4518;DHT22;2271;49.464;11.070;2022-07-04T00:17:34;23.70;99.90
4518;DHT22;2271;49.464;11.070;2022-07-04T00:20:00;23.70;99.90
4518;DHT22;2271;49.464;11.070;2022-07-04T00:22:26;23.70;99.90
4518;DHT22;2271;49.464;11.070;2022-07-04T00:24:52;23.70;99.90
4518;DHT22;2271;49.464;11.070;2022-07-04T00:27:18;23.70;99.90
4518;DHT22;2271;49.464;11.070;2022-07-04T00:29:43;23.60;99.90
4518;DHT22;2271;49.464;11.070;2022-07-04T00:32:09;23.60;99.90
4518;DHT22;2271;49.464;11.070;2022-07-04T00:34:35;23.50;99.90
4518;DHT22;2271;49.464;11.070;2022-07-04T00:37:02;23.50;99.90
4518;DHT22;2271;49.464;11.070;2022-07-04T00:39:28;23.50;99.90
4518;DHT22;2271;49.464;11.070;2022-07-04T00:41:53;23.40;99.90
4518;DHT22;2271;49.464;11.070;2022-07-04T00:44:19;23.30;99.90
4518;DHT22;2271;49.464;11.070;2022-07-04T00:46:46;23.30;99.90
4518;DHT22;2271;49.464;11.070;2022-07-04T00:49:13;23.40;99.90
4518;DHT22;2271;49.464;11.070;2022-07-04T00:51:41;23.40;99.90
4518;DHT22;2271;49.464;11.070;2022-07-04T00:54:09;23.40;99.90
4518;DHT22;2271;49.464;11.070;2022-07-04T00:56:39;23.40;99.90
4518;DHT22;2271;49.464;11.070;2022-07-04T00:59:06;23.40;99.90
4518;DHT22;2271;49.464;11.070;2022-07-04T01:01:32;23.40;99.90
4518;DHT22;2271;49.464;11.070;2022-07-04T01:03:58;23.40;99.90
4518;DHT22;2271;49.464;11.070;2022-07-04T01:06:24;23.40;99.90
4518;DHT22;2271;49.464;11.070;2022-07-04T01:08:50;23.40;99.90
4518;DHT22;2271;49.464;11.070;2022-07-04T01:11:17;23.30;99.90
4518;DHT22;2271;49.464;11.070;2022-07-04T01:13:42;23.20;99.90
4518;DHT22;2271;49.464;11.070;2022-07-04T01:16:10;23.20;99.90
4518;DHT22;2271;49.464;11.070;2022-07-04T01:18:37;23.20;99.90
4518;DHT22;2271;49.464;11.070;2022-07-04T01:21:03;23.20;99.90
4518;DHT22;2271;49.464;11.070;2022-07-04T01:23:29;23.20;99.90
4518;DHT22;2271;49.464;11.070;2022-07-04T01:25:56;23.30;99.90
4518;DHT22;2271;49.464;11.070;2022-07-04T01:28:22;23.30;99.90
4518;DHT22;2271;49.464;11.070;2022-07-04T01:30:48;23.40;99.90
4518;DHT22;2271;49.464;11.070;2022-07-04T01:33:14;23.40;99.90
4518;DHT22;2271;49.464;11.070;2022-07-04T01:35:43;23.40;99.90
4518;DHT22;2271;49.464;11.070;2022-07-04T01:38:08;23.30;99.90
4518;DHT22;2271;49.464;11.070;2022-07-04T01:40:34;23.40;99.90
4518;DHT22;2271;49.464;11.070;2022-07-04T01:43:00;23.30;99.90
4518;DHT22;2271;49.464;11.070;2022-07-04T01:45:26;23.30;99.90
4518;DHT22;2271;49.464;11.070;2022-07-04T01:47:51;23.30;99.90
4518;DHT22;2271;49.464;11.070;2022-07-04T01:50:17;23.30;99.90
4518;DHT22;2271;49.464;11.070;2022-07-04T01:52:43;23.30;99.90
4518;DHT22;2271;49.464;11.070;2022-07-04T01:55:10;23.30;99.90
4518;DHT22;2271;49.464;11.070;2022-07-04T01:57:36;23.20;99.90
4518;DHT22;2271;49.464;11.070;2022-07-04T02:00:04;23.20;99.90
4518;DHT22;2271;49.464;11.070;2022-07-04T02:02:49;23.20;99.90
4518;DHT22;2271;49.464;11.070;2022-07-04T02:05:14;23.20;99.90
4518;DHT22;2271;49.464;11.070;2022-07-04T02:07:40;23.10;99.90
4518;DHT22;2271;49.464;11.070;2022-07-04T02:10:06;23.10;99.90
4518;DHT22;2271;49.464;11.070;2022-07-04T02:12:32;23.20;99.90
4518;DHT22;2271;49.464;11.070;2022-07-04T02:15:19;23.20;99.90
4518;DHT22;2271;49.464;11.070;2022-07-04T02:17:45;23.20;99.90
4518;DHT22;2271;49.464;11.070;2022-07-04T02:20:11;23.20;99.90
4518;DHT22;2271;49.464;11.070;2022-07-04T02:22:37;23.30;99.90
4518;DHT22;2271;49.464;11.070;2022-07-04T02:25:03;23.30;99.90
4518;DHT22;2271;49.464;11.070;2022-07-04T02:27:28;23.30;99.90
4518;DHT22;2271;49.464;11.070;2022-07-04T02:29:54;23.30;99.90
4518;DHT22;2271;49.464;11.070;2022-07-04T02:32:20;23.30;99.90
4518;DHT22;2271;49.464;11.070;2022-07-04T02:34:45;23.10;99.90
4518;DHT22;2271;49.464;11.070;2022-07-04T02:37:11;22.90;99.90
4518;DHT22;2271;49.464;11.070;2022-07-04T02:39:37;22.80;99.90
4518;DHT22;2271;49.464;11.070;2022-07-04T02:42:02;22.50;99.90
4518;DHT22;2271;49.464;11.070;2022-07-04T02:44:28;22.40;99.90
4518;DHT22;2271;49.464;11.070;2022-07-04T02:46:54;22.40;99.90
4518;DHT22;2271;49.464;11.070;2022-07-04T02:49:20;22.40;99.90
4518;DHT22;2271;49.464;11.070;2022-07-04T02:51:45;22.50;99.90
4518;DHT22;2271;49.464;11.070;2022-07-04T02:54:11;22.60;99.90
4518;DHT22;2271;49.464;11.070;2022-07-04T02:56:37;22.70;99.90
4518;DHT22;2271;49.464;11.070;2022-07-04T02:59:03;22.80;99.90
4518;DHT22;2271;49.464;11.070;2022-07-04T03:01:28;22.80;99.90
4518;DHT22;2271;49.464;11.070;2022-07-04T03:03:54;22.80;99.90
4518;DHT22;2271;49.464;11.070;2022-07-04T03:06:19;22.80;99.90
4518;DHT22;2271;49.464;11.070;2022-07-04T03:08:45;22.80;99.90
4518;DHT22;2271;49.464;11.070;2022-07-04T03:11:11;22.80;99.90
4518;DHT22;2271;49.464;11.070;2022-07-04T03:13:38;22.80;99.90
4518;DHT22;2271;49.464;11.070;2022-07-04T03:16:04;22.80;99.90
4518;DHT22;2271;49.464;11.070;2022-07-04T03:18:30;22.90;99.90
4518;DHT22;2271;49.464;11.070;2022-07-04T03:20:56;22.80;99.90
4518;DHT22;2271;49.464;11.070;2022-07-04T03:23:21;22.80;99.90
4518;DHT22;2271;49.464;11.070;2022-07-04T03:25:47;22.80;99.90
4518;DHT22;2271;49.464;11.070;2022-07-04T03:28:13;22.80;99.90
4518;DHT22;2271;49.464;11.070;2022-07-04T03:30:39;22.70;99.90
4518;DHT22;2271;49.464;11.070;2022-07-04T03:33:05;22.70;99.90
4518;DHT22;2271;49.464;11.070;2022-07-04T03:35:31;22.70;99.90
4518;DHT22;2271;49.464;11.070;2022-07-04T03:37:56;22.70;99.90
4518;DHT22;2271;49.464;11.070;2022-07-04T03:40:22;22.60;99.90
4518;DHT22;2271;49.464;11.070;2022-07-04T03:42:48;22.60;99.90
4518;DHT22;2271;49.464;11.070;2022-07-04T03:45:14;22.60;99.90
4518;DHT22;2271;49.464;11.070;2022-07-04T03:47:40;22.60;99.90
4518;DHT22;2271;49.464;11.070;2022-07-04T03:50:06;22.60;99.90
4518;DHT22;2271;49.464;11.070;2022-07-04T03:52:32;23.00;99.90
4518;DHT22;2271;49.464;11.070;2022-07-04T03:54:57;23.30;99.90
4518;DHT22;2271;49.464;11.070;2022-07-04T03:57:23;23.60;99.90
4518;DHT22;2271;49.464;11.070;2022-07-04T03:59:49;23.60;99.90
4518;DHT22;2271;49.464;11.070;2022-07-04T04:02:14;23.70;99.90
4518;DHT22;2271;49.464;11.070;2022-07-04T04:04:40;23.70;99.90
4518;DHT22;2271;49.464;11.070;2022-07-04T04:07:25;23.70;99.90
4518;DHT22;2271;49.464;11.070;2022-07-04T04:09:50;23.70;99.90
4518;DHT22;2271;49.464;11.070;2022-07-04T04:12:16;23.70;99.90
4518;DHT22;2271;49.464;11.070;2022-07-04T04:14:42;23.60;99.90
4518;DHT22;2271;49.464;11.070;2022-07-04T04:17:07;23.60;99.90
4518;DHT22;2271;49.464;11.070;2022-07-04T04:19:33;23.60;99.90
4518;DHT22;2271;49.464;11.070;2022-07-04T04:21:59;23.50;99.90
4518;DHT22;2271;49.464;11.070;2022-07-04T04:24:25;23.60;99.90
4518;DHT22;2271;49.464;11.070;2022-07-04T04:26:50;23.50;99.90
4518;DHT22;2271;49.464;11.070;2022-07-04T04:29:16;23.50;99.90
4518;DHT22;2271;49.464;11.070;2022-07-04T04:31:42;23.50;99.90
4518;DHT22;2271;49.464;11.070;2022-07-04T04:34:07;23.50;99.90
4518;DHT22;2271;49.464;11.070;2022-07-04T04:36:33;23.40;99.90
4518;DHT22;2271;49.464;11.070;2022-07-04T04:38:59;23.40;99.90
4518;DHT22;2271;49.464;11.070;2022-07-04T04:41:24;23.30;99.90
4518;DHT22;2271;49.464;11.070;2022-07-04T04:43:50;23.20;99.90
4518;DHT22;2271;49.464;11.070;2022-07-04T04:46:16;23.10;99.90
4518;DHT22;2271;49.464;11.070;2022-07-04T04:48:41;23.10;99.90
4518;DHT22;2271;49.464;11.070;2022-07-04T04:51:07;23.10;99.90
4518;DHT22;2271;49.464;11.070;2022-07-04T04:53:32;23.10;99.90
4518;DHT22;2271;49.464;11.070;2022-07-04T04:55:58;23.10;99.90
4518;DHT22;2271;49.464;11.070;2022-07-04T04:58:24;23.00;99.90
4518;DHT22;2271;49.464;11.070;2022-07-04T05:00:50;23.00;99.90
4518;DHT22;2271;49.464;11.070;2022-07-04T05:03:16;22.90;99.90
4518;DHT22;2271;49.464;11.070;2022-07-04T05:05:43;22.90;99.90
4518;DHT22;2271;49.464;11.070;2022-07-04T05:08:09;22.90;99.90
4518;DHT22;2271;49.464;11.070;2022-07-04T05:10:34;23.00;99.90
4518;DHT22;2271;49.464;11.070;2022-07-04T05:13:00;23.00;99.90
4518;DHT22;2271;49.464;11.070;2022-07-04T05:15:26;23.10;99.90
4518;DHT22;2271;49.464;11.070;2022-07-04T05:17:52;23.10;99.90
4518;DHT22;2271;49.464;11.070;2022-07-04T05:20:17;23.10;99.90
4518;DHT22;2271;49.464;11.070;2022-07-04T05:22:43;23.10;99.90
4518;DHT22;2271;49.464;11.070;2022-07-04T05:25:09;23.20;99.90
4518;DHT22;2271;49.464;11.070;2022-07-04T05:27:35;23.20;99.90
4518;DHT22;2271;49.464;11.070;2022-07-04T05:30:01;23.40;99.90
4518;DHT22;2271;49.464;11.070;2022-07-04T05:32:26;23.50;99.90
4518;DHT22;2271;49.464;11.070;2022-07-04T05:34:52;23.50;99.90
4518;DHT22;2271;49.464;11.070;2022-07-04T05:37:18;23.50;99.90
4518;DHT22;2271;49.464;11.070;2022-07-04T05:39:44;23.60;99.90
4518;DHT22;2271;49.464;11.070;2022-07-04T05:42:10;23.50;99.90
4518;DHT22;2271;49.464;11.070;2022-07-04T05:44:36;23.60;99.90
4518;DHT22;2271;49.464;11.070;2022-07-04T05:47:02;23.60;99.90
4518;DHT22;2271;49.464;11.070;2022-07-04T05:49:27;23.50;99.90
4518;DHT22;2271;49.464;11.070;2022-07-04T05:51:53;23.50;99.90
4518;DHT22;2271;49.464;11.070;2022-07-04T05:54:19;23.60;99.90
4518;DHT22;2271;49.464;11.070;2022-07-04T05:56:45;23.70;99.90
4518;DHT22;2271;49.464;11.070;2022-07-04T05:59:10;23.70;99.90
4518;DHT22;2271;49.464;11.070;2022-07-04T06:01:37;23.80;99.90
4518;DHT22;2271;49.464;11.070;2022-07-04T06:04:03;23.70;99.90
4518;DHT22;2271;49.464;11.070;2022-07-04T06:06:29;23.70;99.90
4518;DHT22;2271;49.464;11.070;2022-07-04T06:08:58;23.70;99.90
4518;DHT22;2271;49.464;11.070;2022-07-04T06:11:24;24.00;99.90
4518;DHT22;2271;49.464;11.070;2022-07-04T06:13:50;24.10;99.90
4518;DHT22;2271;49.464;11.070;2022-07-04T06:16:16;24.20;99.90
4518;DHT22;2271;49.464;11.070;2022-07-04T06:18:42;24.20;99.90
4518;DHT22;2271;49.464;11.070;2022-07-04T06:21:09;24.30;99.90
4518;DHT22;2271;49.464;11.070;2022-07-04T06:23:34;24.40;99.90
4518;DHT22;2271;49.464;11.070;2022-07-04T06:26:00;24.60;99.90
4518;DHT22;2271;49.464;11.070;2022-07-04T06:28:27;24.60;99.90
4518;DHT22;2271;49.464;11.070;2022-07-04T06:30:53;24.60;99.90
4518;DHT22;2271;49.464;11.070;2022-07-04T06:33:18;24.40;99.90
4518;DHT22;2271;49.464;11.070;2022-07-04T06:35:44;24.40;99.90
4518;DHT22;2271;49.464;11.070;2022-07-04T06:38:12;24.40;99.90
4518;DHT22;2271;49.464;11.070;2022-07-04T06:40:38;24.60;99.90
4518;DHT22;2271;49.464;11.070;2022-07-04T06:43:05;24.80;99.90
4518;DHT22;2271;49.464;11.070;2022-07-04T06:45:31;24.80;99.90
4518;DHT22;2271;49.464;11.070;2022-07-04T06:47:59;24.90;99.90
4518;DHT22;2271;49.464;11.070;2022-07-04T06:50:25;25.10;99.90
4518;DHT22;2271;49.464;11.070;2022-07-04T06:52:51;25.20;99.90
4518;DHT22;2271;49.464;11.070;2022-07-04T06:55:36;25.30;99.90
4518;DHT22;2271;49.464;11.070;2022-07-04T06:58:02;25.30;99.90
4518;DHT22;2271;49.464;11.070;2022-07-04T07:00:28;25.30;99.90
4518;DHT22;2271;49.464;11.070;2022-07-04T07:02:57;25.10;99.90
4518;DHT22;2271;49.464;11.070;2022-07-04T07:05:25;24.80;99.90
4518;DHT22;2271;49.464;11.070;2022-07-04T07:07:50;24.90;99.90
4518;DHT22;2271;49.464;11.070;2022-07-04T07:10:16;25.00;99.90
4518;DHT22;2271;49.464;11.070;2022-07-04T07:12:41;25.10;99.90
4518;DHT22;2271;49.464;11.070;2022-07-04T07:15:07;25.10;99.90
4518;DHT22;2271;49.464;11.070;2022-07-04T07:17:34;25.20;99.90
4518;DHT22;2271;49.464;11.070;2022-07-04T07:20:00;25.10;99.90
4518;DHT22;2271;49.464;11.070;2022-07-04T07:22:26;25.00;99.90
4518;DHT22;2271;49.464;11.070;2022-07-04T07:24:51;24.90;99.90
4518;DHT22;2271;49.464;11.070;2022-07-04T07:27:17;25.00;99.90
4518;DHT22;2271;49.464;11.070;2022-07-04T07:29:42;24.90;99.90
4518;DHT22;2271;49.464;11.070;2022-07-04T07:32:08;24.60;99.90
4518;DHT22;2271;49.464;11.070;2022-07-04T07:34:34;24.30;99.90
4518;DHT22;2271;49.464;11.070;2022-07-04T07:37:00;24.30;99.90
4518;DHT22;2271;49.464;11.070;2022-07-04T07:39:26;24.20;99.90
4518;DHT22;2271;49.464;11.070;2022-07-04T07:41:51;24.30;99.90
4518;DHT22;2271;49.464;11.070;2022-07-04T07:44:17;24.40;99.90
4518;DHT22;2271;49.464;11.070;2022-07-04T07:46:43;24.30;99.90
4518;DHT22;2271;49.464;11.070;2022-07-04T07:49:08;24.20;99.90
4518;DHT22;2271;49.464;11.070;2022-07-04T07:51:34;24.20;99.90
4518;DHT22;2271;49.464;11.070;2022-07-04T07:53:59;24.10;99.90
4518;DHT22;2271;49.464;11.070;2022-07-04T07:56:25;24.10;99.90
4518;DHT22;2271;49.464;11.070;2022-07-04T07:58:51;24.20;99.90
4518;DHT22;2271;49.464;11.070;2022-07-04T08:01:17;24.30;99.90
4518;DHT22;2271;49.464;11.070;2022-07-04T08:03:43;24.50;99.90
4518;DHT22;2271;49.464;11.070;2022-07-04T08:06:27;24.50;99.90
4518;DHT22;2271;49.464;11.070;2022-07-04T08:08:53;24.70;99.90
4518;DHT22;2271;49.464;11.070;2022-07-04T08:11:19;24.90;99.90
4518;DHT22;2271;49.464;11.070;2022-07-04T08:13:45;25.10;99.90
4518;DHT22;2271;49.464;11.070;2022-07-04T08:16:11;25.20;99.90
4518;DHT22;2271;49.464;11.070;2022-07-04T08:18:37;25.30;99.90
4518;DHT22;2271;49.464;11.070;2022-07-04T08:21:04;25.30;99.90
4518;DHT22;2271;49.464;11.070;2022-07-04T08:23:31;24.90;99.90
4518;DHT22;2271;49.464;11.070;2022-07-04T08:25:58;25.00;99.90
4518;DHT22;2271;49.464;11.070;2022-07-04T08:28:25;25.10;99.90
4518;DHT22;2271;49.464;11.070;2022-07-04T08:30:51;25.20;99.90
4518;DHT22;2271;49.464;11.070;2022-07-04T08:33:17;25.20;99.90
4518;DHT22;2271;49.464;11.070;2022-07-04T08:35:42;25.50;99.90
4518;DHT22;2271;49.464;11.070;2022-07-04T08:38:08;25.60;99.90
4518;DHT22;2271;49.464;11.070;2022-07-04T08:40:34;25.70;99.90
4518;DHT22;2271;49.464;11.070;2022-07-04T08:43:02;25.90;99.90
4518;DHT22;2271;49.464;11.070;2022-07-04T08:45:33;25.60;99.90
4518;DHT22;2271;49.464;11.070;2022-07-04T08:48:01;25.40;99.90
4518;DHT22;2271;49.464;11.070;2022-07-04T08:50:32;25.50;99.90
4518;DHT22;2271;49.464;11.070;2022-07-04T08:53:02;25.70;99.90
4518;DHT22;2271;49.464;11.070;2022-07-04T08:55:29;25.80;99.90
4518;DHT22;2271;49.464;11.070;2022-07-04T08:58:14;25.70;99.90
4518;DHT22;2271;49.464;11.070;2022-07-04T09:00:53;25.90;99.90
4518;DHT22;2271;49.464;11.070;2022-07-04T09:03:19;26.00;99.90
4518;DHT22;2271;49.464;11.070;2022-07-04T09:05:45;25.90;99.90
4518;DHT22;2271;49.464;11.070;2022-07-04T09:08:11;26.00;99.90
4518;DHT22;2271;49.464;11.070;2022-07-04T09:10:38;26.10;99.90
4518;DHT22;2271;49.464;11.070;2022-07-04T09:13:09;26.20;99.90
4518;DHT22;2271;49.464;11.070;2022-07-04T09:15:35;26.20;99.90
4518;DHT22;2271;49.464;11.070;2022-07-04T09:18:01;26.30;99.90
4518;DHT22;2271;49.464;11.070;2022-07-04T09:20:28;26.30;99.90
4518;DHT22;2271;49.464;11.070;2022-07-04T09:22:55;26.40;99.90
4518;DHT22;2271;49.464;11.070;2022-07-04T09:25:25;26.50;99.90
4518;DHT22;2271;49.464;11.070;2022-07-04T09:27:52;26.40;99.90
4518;DHT22;2271;49.464;11.070;2022-07-04T09:30:20;26.40;99.90
4518;DHT22;2271;49.464;11.070;2022-07-04T09:32:58;26.40;99.90
4518;DHT22;2271;49.464;11.070;2022-07-04T09:35:31;25.80;99.90
4518;DHT22;2271;49.464;11.070;2022-07-04T09:38:00;25.60;99.90
4518;DHT22;2271;49.464;11.070;2022-07-04T09:40:34;25.70;99.90
4518;DHT22;2271;49.464;11.070;2022-07-04T09:43:20;25.90;99.90
4518;DHT22;2271;49.464;11.070;2022-07-04T09:45:56;26.00;99.90
4518;DHT22;2271;49.464;11.070;2022-07-04T09:48:23;26.00;99.90
4518;DHT22;2271;49.464;11.070;2022-07-04T09:50:49;25.90;99.90
4518;DHT22;2271;49.464;11.070;2022-07-04T09:53:15;26.20;99.90
4518;DHT22;2271;49.464;11.070;2022-07-04T09:55:41;26.40;99.90
4518;DHT22;2271;49.464;11.070;2022-07-04T09:58:08;26.70;99.90
4518;DHT22;2271;49.464;11.070;2022-07-04T10:00:42;26.90;99.90
4518;DHT22;2271;49.464;11.070;2022-07-04T10:05:45;26.80;99.90
4518;DHT22;2271;49.464;11.070;2022-07-04T10:08:12;26.50;99.90
4518;DHT22;2271;49.464;11.070;2022-07-04T10:10:39;26.40;99.90
4518;DHT22;2271;49.464;11.070;2022-07-04T10:13:10;26.40;99.90
4518;DHT22;2271;49.464;11.070;2022-07-04T10:15:38;26.50;99.90
4518;DHT22;2271;49.464;11.070;2022-07-04T10:18:05;26.60;99.90
4518;DHT22;2271;49.464;11.070;2022-07-04T10:20:31;26.60;99.90
4518;DHT22;2271;49.464;11.070;2022-07-04T10:22:57;26.60;99.90
4518;DHT22;2271;49.464;11.070;2022-07-04T10:25:23;26.60;99.90
4518;DHT22;2271;49.464;11.070;2022-07-04T10:27:48;26.50;99.90
4518;DHT22;2271;49.464;11.070;2022-07-04T10:30:29;26.60;99.90
4518;DHT22;2271;49.464;11.070;2022-07-04T10:32:58;26.90;99.80
4518;DHT22;2271;49.464;11.070;2022-07-04T10:38:12;27.00;99.90
4518;DHT22;2271;49.464;11.070;2022-07-04T10:40:41;27.10;99.90
4518;DHT22;2271;49.464;11.070;2022-07-04T10:54:03;26.90;99.40
4518;DHT22;2271;49.464;11.070;2022-07-04T10:58:55;27.20;99.90
4518;DHT22;2271;49.464;11.070;2022-07-04T11:01:24;27.40;99.70
4518;DHT22;2271;49.464;11.070;2022-07-04T11:03:53;27.30;98.80
4518;DHT22;2271;49.464;11.070;2022-07-04T11:09:24;27.00;97.60
4518;DHT22;2271;49.464;11.070;2022-07-04T11:14:48;27.10;97.10
4518;DHT22;2271;49.464;11.070;2022-07-04T11:19:41;27.20;96.40
4518;DHT22;2271;49.464;11.070;2022-07-04T11:22:08;27.40;97.60
4518;DHT22;2271;49.464;11.070;2022-07-04T11:24:36;27.50;96.60
4518;DHT22;2271;49.464;11.070;2022-07-04T11:27:03;27.70;96.80
4518;DHT22;2271;49.464;11.070;2022-07-04T11:29:30;27.80;96.00
4518;DHT22;2271;49.464;11.070;2022-07-04T11:31:56;27.50;96.40
4518;DHT22;2271;49.464;11.070;2022-07-04T11:34:22;27.70;96.30
4518;DHT22;2271;49.464;11.070;2022-07-04T11:36:50;27.80;96.10
4518;DHT22;2271;49.464;11.070;2022-07-04T11:39:18;27.80;95.80
4518;DHT22;2271;49.464;11.070;2022-07-04T11:41:52;28.10;96.60
4518;DHT22;2271;49.464;11.070;2022-07-04T11:44:41;28.30;96.30
4518;DHT22;2271;49.464;11.070;2022-07-04T11:47:38;28.50;96.40
4518;DHT22;2271;49.464;11.070;2022-07-04T11:50:09;28.60;96.10
4518;DHT22;2271;49.464;11.070;2022-07-04T11:52:41;28.40;95.40
4518;DHT22;2271;49.464;11.070;2022-07-04T11:55:10;28.50;95.80
4518;DHT22;2271;49.464;11.070;2022-07-04T11:57:41;28.50;95.30
4518;DHT22;2271;49.464;11.070;2022-07-04T12:00:15;28.60;95.80
4518;DHT22;2271;49.464;11.070;2022-07-04T12:02:42;28.70;96.20
4518;DHT22;2271;49.464;11.070;2022-07-04T12:05:10;28.80;95.80
4518;DHT22;2271;49.464;11.070;2022-07-04T12:07:40;29.00;95.80
4518;DHT22;2271;49.464;11.070;2022-07-04T12:13:03;29.30;95.30
4518;DHT22;2271;49.464;11.070;2022-07-04T12:15:42;29.40;95.10
4518;DHT22;2271;49.464;11.070;2022-07-04T12:20:43;29.20;95.20
4518;DHT22;2271;49.464;11.070;2022-07-04T12:23:09;29.10;94.80
4518;DHT22;2271;49.464;11.070;2022-07-04T12:25:37;29.00;95.60
4518;DHT22;2271;49.464;11.070;2022-07-04T12:28:12;29.00;94.90
4518;DHT22;2271;49.464;11.070;2022-07-04T12:33:18;28.20;95.00
4518;DHT22;2271;49.464;11.070;2022-07-04T12:35:51;27.80;95.50
4518;DHT22;2271;49.464;11.070;2022-07-04T12:41:01;27.60;96.40
4518;DHT22;2271;49.464;11.070;2022-07-04T12:46:11;27.70;96.10
4518;DHT22;2271;49.464;11.070;2022-07-04T12:48:39;27.80;96.10
4518;DHT22;2271;49.464;11.070;2022-07-04T12:53:43;28.00;96.20
4518;DHT22;2271;49.464;11.070;2022-07-04T12:56:10;28.20;95.70
4518;DHT22;2271;49.464;11.070;2022-07-04T12:58:52;28.20;95.90
4518;DHT22;2271;49.464;11.070;2022-07-04T13:01:17;28.50;96.30
4518;DHT22;2271;49.464;11.070;2022-07-04T13:03:43;28.80;94.90
4518;DHT22;2271;49.464;11.070;2022-07-04T13:06:08;28.90;94.40
4518;DHT22;2271;49.464;11.070;2022-07-04T13:08:34;28.90;94.60
4518;DHT22;2271;49.464;11.070;2022-07-04T13:11:00;29.10;93.50
4518;DHT22;2271;49.464;11.070;2022-07-04T13:13:44;29.10;94.40
4518;DHT22;2271;49.464;11.070;2022-07-04T13:16:10;29.30;93.60
4518;DHT22;2271;49.464;11.070;2022-07-04T13:18:35;29.30;92.60
4518;DHT22;2271;49.464;11.070;2022-07-04T13:21:01;29.50;92.40
4518;DHT22;2271;49.464;11.070;2022-07-04T13:23:27;29.40;92.70
4518;DHT22;2271;49.464;11.070;2022-07-04T13:25:52;29.20;92.60
4518;DHT22;2271;49.464;11.070;2022-07-04T13:28:19;29.00;92.50
4518;DHT22;2271;49.464;11.070;2022-07-04T13:30:45;29.00;93.80
4518;DHT22;2271;49.464;11.070;2022-07-04T13:33:10;29.20;93.50
4518;DHT22;2271;49.464;11.070;2022-07-04T13:35:36;29.20;93.20
4518;DHT22;2271;49.464;11.070;2022-07-04T13:38:02;29.10;92.70
4518;DHT22;2271;49.464;11.070;2022-07-04T13:40:27;29.00;91.70
4518;DHT22;2271;49.464;11.070;2022-07-04T13:42:53;28.90;91.90
4518;DHT22;2271;49.464;11.070;2022-07-04T13:45:22;29.00;92.30
4518;DHT22;2271;49.464;11.070;2022-07-04T13:47:48;29.10;92.10
4518;DHT22;2271;49.464;11.070;2022-07-04T13:50:13;29.10;92.30
4518;DHT22;2271;49.464;11.070;2022-07-04T13:52:39;29.00;92.50
4518;DHT22;2271;49.464;11.070;2022-07-04T13:55:05;29.10;92.40
4518;DHT22;2271;49.464;11.070;2022-07-04T13:57:31;28.90;91.00
4518;DHT22;2271;49.464;11.070;2022-07-04T13:59:57;29.00;91.40
4518;DHT22;2271;49.464;11.070;2022-07-04T14:02:22;29.20;90.30
4518;DHT22;2271;49.464;11.070;2022-07-04T14:04:48;29.20;90.00
4518;DHT22;2271;49.464;11.070;2022-07-04T14:07:14;29.10;90.00
4518;DHT22;2271;49.464;11.070;2022-07-04T14:09:39;29.10;90.60
4518;DHT22;2271;49.464;11.070;2022-07-04T14:12:05;29.10;89.70
4518;DHT22;2271;49.464;11.070;2022-07-04T14:14:31;29.00;90.00
4518;DHT22;2271;49.464;11.070;2022-07-04T14:16:57;28.80;89.90
4518;DHT22;2271;49.464;11.070;2022-07-04T14:19:23;28.50;90.40
4518;DHT22;2271;49.464;11.070;2022-07-04T14:21:48;28.40;90.70
4518;DHT22;2271;49.464;11.070;2022-07-04T14:24:14;28.40;90.00
4518;DHT22;2271;49.464;11.070;2022-07-04T14:26:42;28.30;89.80
4518;DHT22;2271;49.464;11.070;2022-07-04T14:29:07;28.20;89.20
4518;DHT22;2271;49.464;11.070;2022-07-04T14:31:33;28.40;88.60
4518;DHT22;2271;49.464;11.070;2022-07-04T14:33:59;28.30;88.30
4518;DHT22;2271;49.464;11.070;2022-07-04T14:36:24;28.30;87.20
4518;DHT22;2271;49.464;11.070;2022-07-04T14:38:50;28.30;86.80
4518;DHT22;2271;49.464;11.070;2022-07-04T14:41:16;28.50;87.20
4518;DHT22;2271;49.464;11.070;2022-07-04T14:43:43;28.60;87.60
4518;DHT22;2271;49.464;11.070;2022-07-04T14:46:09;28.60;87.40
4518;DHT22;2271;49.464;11.070;2022-07-04T14:48:36;28.50;88.10
4518;DHT22;2271;49.464;11.070;2022-07-04T14:51:02;28.30;88.70
4518;DHT22;2271;49.464;11.070;2022-07-04T14:53:28;28.20;89.10
4518;DHT22;2271;49.464;11.070;2022-07-04T14:55:54;28.10;89.80
4518;DHT22;2271;49.464;11.070;2022-07-04T14:58:20;28.10;89.70
4518;DHT22;2271;49.464;11.070;2022-07-04T15:00:46;28.10;89.50
4518;DHT22;2271;49.464;11.070;2022-07-04T15:03:11;28.10;89.50
4518;DHT22;2271;49.464;11.070;2022-07-04T15:05:37;28.10;87.60
4518;DHT22;2271;49.464;11.070;2022-07-04T15:08:03;28.10;87.90
4518;DHT22;2271;49.464;11.070;2022-07-04T15:10:28;28.20;87.50
4518;DHT22;2271;49.464;11.070;2022-07-04T15:12:54;28.20;87.60
4518;DHT22;2271;49.464;11.070;2022-07-04T15:15:20;28.20;87.90
4518;DHT22;2271;49.464;11.070;2022-07-04T15:17:46;28.30;87.10
4518;DHT22;2271;49.464;11.070;2022-07-04T15:20:13;28.30;86.00
4518;DHT22;2271;49.464;11.070;2022-07-04T15:22:57;28.30;87.10
4518;DHT22;2271;49.464;11.070;2022-07-04T15:25:41;28.30;86.80
4518;DHT22;2271;49.464;11.070;2022-07-04T15:28:07;28.20;86.10
4518;DHT22;2271;49.464;11.070;2022-07-04T15:30:32;28.10;85.10
4518;DHT22;2271;49.464;11.070;2022-07-04T15:32:58;28.00;86.70
4518;DHT22;2271;49.464;11.070;2022-07-04T15:35:24;27.90;86.70
4518;DHT22;2271;49.464;11.070;2022-07-04T15:37:50;27.80;86.00
4518;DHT22;2271;49.464;11.070;2022-07-04T15:40:17;27.80;87.90
4518;DHT22;2271;49.464;11.070;2022-07-04T15:42:42;27.90;87.10
4518;DHT22;2271;49.464;11.070;2022-07-04T15:45:08;27.90;87.00
4518;DHT22;2271;49.464;11.070;2022-07-04T15:47:34;28.10;86.60
4518;DHT22;2271;49.464;11.070;2022-07-04T15:50:00;28.00;84.50
4518;DHT22;2271;49.464;11.070;2022-07-04T15:52:26;27.90;84.70
4518;DHT22;2271;49.464;11.070;2022-07-04T15:54:53;27.90;84.10
4518;DHT22;2271;49.464;11.070;2022-07-04T15:57:19;27.80;86.70
4518;DHT22;2271;49.464;11.070;2022-07-04T15:59:45;27.80;86.10
4518;DHT22;2271;49.464;11.070;2022-07-04T16:02:10;27.70;88.00
4518;DHT22;2271;49.464;11.070;2022-07-04T16:04:36;27.70;86.90
4518;DHT22;2271;49.464;11.070;2022-07-04T16:07:02;27.80;85.40
4518;DHT22;2271;49.464;11.070;2022-07-04T16:09:28;27.80;84.90
4518;DHT22;2271;49.464;11.070;2022-07-04T16:11:53;27.60;85.00
4518;DHT22;2271;49.464;11.070;2022-07-04T16:14:20;27.70;85.20
4518;DHT22;2271;49.464;11.070;2022-07-04T16:16:47;27.70;85.60
4518;DHT22;2271;49.464;11.070;2022-07-04T16:19:14;27.70;85.70
4518;DHT22;2271;49.464;11.070;2022-07-04T16:21:40;27.70;85.10
4518;DHT22;2271;49.464;11.070;2022-07-04T16:24:07;27.80;86.20
4518;DHT22;2271;49.464;11.070;2022-07-04T16:26:33;27.90;83.90